Inicio METAR Ruta Wind Satelite

Informe Meteorológico

Fecha: 2023/12/02 23:40:19 Local
2023.12.03 04:40 UTC


Operación:VFR
SKPS 030400Z NIL =

SKPS 022200Z 36003KT 9999 BKN025 21/17 Q1017
SKPS 022100Z 31003KT 9999 BKN025 23/17 Q1016
SKPS 022000Z 29007KT 9999 SCT025 24/16 Q1016
SKPS 021900Z 35007KT 9999 SCT025 25/15 Q1017
SKPS 021800Z 29006KT 260V320 9999 SCT025 25/13 Q1018